Terminal Aerodrome Forecast
Issued by NWS Binghamton, NY

Home | Current Version | Previous Version | Text Only | Print | Product List | Glossary On
Versions: 1 2 3 4 5 6 7 8 9 10 11 12 13 14 15 16
881
FTUS41 KBGM 080530
TAFSYR
TAF
KSYR 080530Z 0806/0906 10007KT P6SM SCT120 BKN250
     FM081800 10008KT P6SM BKN100
     FM090000 10005KT P6SM -SHSN OVC050=

USA.gov is the U.S. government's official web portal to all federal, state and local government web resources and services.